Time;durP1;ratioP1;P1;durP2;ratioP2;P2;SDS_P1;SDS_P2;PMS_P1;PMS_P2;Temp;Humidity;BMP_temperature;BMP_pressure;BME280_temperature;BME280_humidity;BME280_pressure;Samples;Min_cycle;Max_cycle;Signal;HPM_P1;HPM_P2
2022/07/03 00:00:19;;;;;;;3.08;2.88;;;15.80;99.90;;;16.61;82.55;98147.06;5204653;28;20198;-57
2022/07/03 00:02:53;;;;;;;3.40;2.95;;;15.80;99.90;;;16.56;82.33;98147.72;5211698;28;20220;-59
2022/07/03 00:05:27;;;;;;;3.05;2.85;;;15.80;99.90;;;16.53;81.96;98140.72;5210658;28;20692;-54
2022/07/03 00:08:00;;;;;;;3.80;3.00;;;15.70;99.90;;;16.54;81.97;98139.94;5202518;28;20202;-59
2022/07/03 00:10:34;;;;;;;3.67;3.38;;;15.70;99.90;;;16.47;80.84;98153.41;5205761;28;20623;-57
2022/07/03 00:13:07;;;;;;;4.10;3.22;;;15.60;99.90;;;16.44;82.16;98151.56;5203158;28;20251;-59
2022/07/03 00:15:41;;;;;;;3.08;2.88;;;15.70;99.90;;;16.47;83.12;98140.50;5204082;28;20218;-58
2022/07/03 00:18:15;;;;;;;3.40;3.10;;;15.70;99.90;;;16.50;83.48;98143.19;5203432;28;20267;-57
2022/07/03 00:20:50;;;;;;;2.97;2.75;;;15.80;99.90;;;16.49;82.99;98149.19;5206541;28;20256;-57
2022/07/03 00:23:24;;;;;;;3.70;3.22;;;15.70;99.90;;;16.49;83.33;98148.31;5201024;28;20213;-58
2022/07/03 00:26:02;;;;;;;3.58;3.38;;;15.70;99.90;;;16.45;83.99;98149.88;5202193;28;20638;-59
2022/07/03 00:28:35;;;;;;;3.38;3.08;;;15.70;99.90;;;16.33;82.79;98150.28;5205535;28;20243;-55
2022/07/03 00:31:10;;;;;;;3.90;3.60;;;15.60;99.90;;;16.30;82.12;98146.72;5208259;28;20629;-57
2022/07/03 00:33:46;;;;;;;3.17;2.97;;;15.50;99.90;;;16.21;82.29;98148.09;5201885;28;20212;-57
2022/07/03 00:36:19;;;;;;;3.58;3.25;;;15.40;99.90;;;16.20;82.56;98142.91;5208001;28;20275;-56
2022/07/03 00:38:52;;;;;;;3.28;3.08;;;15.30;99.90;;;16.13;82.35;98136.59;5201367;28;20226;-57
2022/07/03 00:41:28;;;;;;;3.58;3.30;;;15.30;99.90;;;16.13;82.62;98131.44;5203720;28;20252;-57
2022/07/03 00:44:01;;;;;;;3.80;3.20;;;15.30;99.90;;;16.13;83.25;98138.31;5202087;28;20202;-56
2022/07/03 00:46:39;;;;;;;3.30;3.10;;;15.30;99.90;;;16.12;83.47;98139.13;5202468;28;20715;-53
2022/07/03 00:49:17;;;;;;;3.95;3.60;;;15.30;99.90;;;16.10;83.44;98135.59;5203555;28;20690;-56
2022/07/03 00:51:54;;;;;;;3.30;3.10;;;15.30;99.90;;;16.09;84.15;98131.28;5200233;28;20209;-57
2022/07/03 00:54:27;;;;;;;3.40;3.10;;;15.30;99.90;;;16.11;85.15;98135.69;5204073;28;20248;-57
2022/07/03 00:57:03;;;;;;;3.80;3.60;;;15.40;99.90;;;16.08;85.06;98139.81;5202105;28;20213;-57
2022/07/03 00:59:36;;;;;;;3.45;3.25;;;15.40;99.90;;;16.08;84.95;98138.13;5202033;28;20705;-55
2022/07/03 01:02:14;;;;;;;3.42;3.13;;;15.30;99.90;;;16.09;84.73;98146.75;5200609;28;20198;-55
2022/07/03 01:05:00;;;;;;;3.47;3.10;;;15.40;99.90;;;16.01;84.56;98138.69;5204833;28;20272;-57
2022/07/03 01:07:44;;;;;;;3.55;3.28;;;15.30;99.90;;;16.05;85.97;98144.84;5202944;28;20338;-58
2022/07/03 01:10:32;;;;;;;4.38;3.13;;;15.30;99.90;;;16.04;84.67;98145.69;5198722;28;20624;-57
2022/07/03 01:13:19;;;;;;;3.90;3.60;;;15.20;99.90;;;16.04;86.45;98143.09;5199140;28;20202;-57
2022/07/03 01:16:06;;;;;;;3.35;3.05;;;15.30;99.90;;;15.99;85.97;98133.50;5199368;28;20635;-55
2022/07/03 01:18:46;;;;;;;3.75;3.45;;;15.30;99.90;;;16.01;85.16;98141.28;5200091;28;20202;-57
2022/07/03 01:21:46;;;;;;;3.50;3.30;;;15.20;99.90;;;15.99;84.99;98148.06;5196714;28;20292;-58
2022/07/03 01:24:40;;;;;;;3.70;3.22;;;15.20;99.90;;;15.95;84.89;98135.88;5201066;28;20201;-57
2022/07/03 01:27:24;;;;;;;3.35;3.13;;;15.10;99.90;;;15.92;85.04;98141.78;5198250;28;20630;-59
2022/07/03 01:30:06;;;;;;;3.50;3.30;;;15.10;99.90;;;15.87;85.75;98145.00;5198879;28;20197;-59
2022/07/03 01:32:42;;;;;;;3.92;2.90;;;15.10;99.90;;;15.80;86.56;98135.25;5202592;28;20202;-58
2022/07/03 01:35:22;;;;;;;3.83;3.53;;;15.00;99.90;;;15.73;86.49;98134.97;5200282;28;20483;-57
2022/07/03 01:37:56;;;;;;;3.53;3.22;;;15.00;99.90;;;15.73;86.20;98134.13;5197186;28;20279;-57
2022/07/03 01:40:30;;;;;;;3.42;2.92;;;14.90;99.90;;;15.73;86.48;98136.69;5199740;28;20202;-57
2022/07/03 01:43:08;;;;;;;3.65;3.35;;;14.90;99.90;;;15.67;86.00;98139.84;5199555;28;20228;-58
2022/07/03 01:45:45;;;;;;;3.22;3.13;;;14.80;99.90;;;15.66;86.24;98138.09;5199472;28;20217;-58
2022/07/03 01:48:20;;;;;;;3.08;2.85;;;14.80;99.90;;;15.62;87.13;98131.06;5199747;28;20256;-59
2022/07/03 01:50:54;;;;;;;3.55;3.35;;;14.90;99.90;;;15.67;86.88;98129.56;5195696;28;20247;-57
2022/07/03 01:53:30;;;;;;;3.42;3.22;;;14.90;99.90;;;15.60;86.43;98122.41;5200389;28;20247;-61
2022/07/03 01:56:04;;;;;;;3.50;3.20;;;14.80;99.90;;;15.54;87.20;98127.31;5198916;28;20591;-60
2022/07/03 01:58:39;;;;;;;3.75;3.33;;;14.80;99.90;;;15.55;86.48;98132.50;5196424;28;20217;-61
2022/07/03 02:01:21;;;;;;;3.72;3.42;;;14.70;99.90;;;15.51;86.99;98133.19;5197627;28;20236;-60
2022/07/03 02:04:05;;;;;;;4.55;3.50;;;14.70;99.90;;;15.41;86.42;98133.63;5196920;28;20300;-60
2022/07/03 02:06:45;;;;;;;3.45;3.15;;;14.50;99.90;;;15.31;86.91;98132.34;5194118;28;20324;-59
2022/07/03 02:09:26;;;;;;;3.08;2.88;;;14.50;99.90;;;15.33;87.82;98141.00;5195520;28;20293;-61
2022/07/03 02:12:01;;;;;;;3.70;3.40;;;14.50;99.90;;;15.32;88.15;98134.09;5199982;28;20201;-55
2022/07/03 02:14:39;;;;;;;3.40;3.20;;;14.50;99.90;;;15.38;88.27;98130.03;5201516;28;20189;-54
2022/07/03 02:17:18;;;;;;;3.10;2.90;;;14.60;99.90;;;15.33;87.86;98137.56;5198012;28;20756;-57
2022/07/03 02:19:55;;;;;;;3.53;3.22;;;14.60;99.90;;;15.28;88.58;98142.53;5197170;28;20217;-55
2022/07/03 02:22:33;;;;;;;3.13;2.92;;;14.50;99.90;;;15.26;87.79;98138.13;5198485;28;20240;-56
2022/07/03 02:25:10;;;;;;;3.75;3.42;;;14.50;99.90;;;15.27;87.61;98138.19;5197641;28;20681;-59
2022/07/03 02:27:44;;;;;;;3.40;3.20;;;14.50;99.90;;;15.30;88.22;98143.44;5200128;28;20212;-56
2022/07/03 02:30:19;;;;;;;3.50;3.30;;;14.50;99.90;;;15.26;88.36;98141.56;5198342;28;20684;-56
2022/07/03 02:32:54;;;;;;;3.58;3.30;;;14.50;99.90;;;15.31;88.61;98145.25;5199698;28;20202;-58
2022/07/03 02:35:29;;;;;;;3.40;3.20;;;14.50;99.90;;;15.29;88.32;98141.72;5201486;28;20279;-56
2022/07/03 02:38:07;;;;;;;3.22;3.03;;;14.50;99.90;;;15.28;87.78;98139.97;5197224;28;20205;-53
2022/07/03 02:40:44;;;;;;;3.33;3.13;;;14.50;99.90;;;15.31;88.31;98142.66;5219442;22;20287;-62
2022/07/03 02:43:27;;;;;;;3.78;3.47;;;14.50;99.90;;;15.25;87.62;98138.91;5199409;28;20206;-61
2022/07/03 02:46:48;;;;;;;2.88;2.67;;;14.50;99.90;;;15.22;88.05;98146.50;5199299;28;20209;-60
2022/07/03 02:49:14;;;;;;;3.25;2.95;;;14.40;99.90;;;15.14;87.71;98140.16;5198089;28;20197;-59
2022/07/03 02:51:57;;;;;;;3.47;3.17;;;14.30;99.90;;;15.11;88.54;98138.34;5219798;28;20193;-58
2022/07/03 02:54:37;;;;;;;3.60;2.80;;;14.30;99.90;;;15.09;87.68;98142.53;5220434;28;20685;-60
2022/07/03 02:57:10;;;;;;;3.40;3.13;;;14.30;99.90;;;15.01;87.96;98143.88;5219030;28;20749;-61
2022/07/03 02:59:56;;;;;;;3.38;3.17;;;14.20;99.90;;;14.96;88.45;98141.09;5218123;28;20248;-62
2022/07/03 03:02:58;;;;;;;3.30;3.10;;;14.20;99.90;;;14.93;87.54;98140.97;5220304;28;20197;-61
2022/07/03 03:05:38;;;;;;;3.60;3.30;;;14.10;99.90;;;14.97;87.97;98132.59;5174175;28;20205;-60
2022/07/03 03:08:22;;;;;;;3.53;3.15;;;14.20;99.90;;;14.96;88.67;98140.22;5216542;28;20691;-60
2022/07/03 03:11:09;;;;;;;4.05;3.78;;;14.20;99.90;;;14.97;88.40;98144.59;5216644;28;20225;-62
2022/07/03 03:13:51;;;;;;;3.28;2.97;;;14.10;99.90;;;14.92;88.14;98143.50;5221680;28;20544;-58
2022/07/03 03:16:24;;;;;;;3.85;3.58;;;14.10;99.90;;;14.93;88.45;98150.38;5223789;28;20248;-60
2022/07/03 03:18:59;;;;;;;3.95;3.65;;;14.10;99.90;;;14.93;90.17;98151.25;5223106;28;20668;-62
2022/07/03 03:21:43;;;;;;;4.28;3.85;;;14.20;99.90;;;14.91;90.31;98158.06;5220645;28;20209;-60
2022/07/03 03:24:18;;;;;;;3.63;3.38;;;14.10;99.90;;;14.89;90.92;98154.53;5220520;28;20213;-58
2022/07/03 03:26:51;;;;;;;3.20;3.00;;;14.20;99.90;;;14.89;89.65;98158.81;5222565;28;20255;-60
2022/07/03 03:29:25;;;;;;;3.40;3.20;;;14.10;99.90;;;14.86;90.09;98157.84;5220267;28;20647;-62
2022/07/03 03:31:58;;;;;;;3.30;2.97;;;14.10;99.90;;;14.87;88.95;98162.16;5224702;28;20676;-59
2022/07/03 03:34:37;;;;;;;3.20;3.00;;;14.10;99.90;;;14.86;88.69;98168.13;5225909;28;20193;-60
2022/07/03 03:37:10;;;;;;;2.80;2.70;;;14.00;99.90;;;14.89;87.96;98163.94;5222468;28;20205;-62
2022/07/03 03:39:44;;;;;;;3.05;2.83;;;14.00;99.90;;;14.86;88.60;98164.69;5222766;28;20688;-60
2022/07/03 03:42:18;;;;;;;3.47;3.17;;;14.00;99.90;;;14.87;88.06;98172.47;5219494;28;20732;-59
2022/07/03 03:44:51;;;;;;;3.40;3.20;;;14.10;99.90;;;14.84;88.60;98172.31;5222531;28;20614;-62
2022/07/03 03:47:25;;;;;;;3.67;3.38;;;14.10;99.90;;;14.83;89.14;98169.69;5219813;28;20260;-59
2022/07/03 03:50:00;;;;;;;3.63;3.13;;;14.10;99.90;;;14.86;89.22;98165.56;5217676;28;20646;-59
2022/07/03 03:52:33;;;;;;;3.67;3.10;;;14.10;99.90;;;14.86;89.47;98175.84;5218701;28;20189;-62
2022/07/03 03:55:09;;;;;;;3.70;3.10;;;14.20;99.90;;;14.86;88.80;98180.13;5222663;28;20197;-63
2022/07/03 03:57:42;;;;;;;3.45;3.15;;;14.10;99.90;;;14.86;88.95;98180.13;5216186;28;20200;-60
2022/07/03 04:00:17;;;;;;;3.35;3.05;;;14.10;99.90;;;14.80;89.99;98175.59;5219535;28;20273;-60
2022/07/03 04:02:50;;;;;;;3.70;3.50;;;14.10;99.90;;;14.79;90.11;98178.06;5221415;28;20261;-59
2022/07/03 04:05:24;;;;;;;3.55;3.30;;;14.00;99.90;;;14.79;89.47;98176.41;5219526;28;20201;-61
2022/07/03 04:07:58;;;;;;;3.83;3.50;;;14.10;99.90;;;14.84;90.36;98176.59;5219484;28;20201;-61
2022/07/03 04:10:31;;;;;;;4.03;3.72;;;14.10;99.90;;;14.84;90.55;98177.47;5220816;28;20582;-61
2022/07/03 04:13:04;;;;;;;4.07;3.88;;;14.10;99.90;;;14.87;90.33;98177.59;5221506;28;20201;-60
2022/07/03 04:15:37;;;;;;;4.03;3.72;;;14.20;99.90;;;14.90;90.44;98176.00;5220598;28;20205;-61
2022/07/03 04:18:11;;;;;;;3.90;3.60;;;14.20;99.90;;;14.90;91.95;98187.16;5220112;28;20251;-59
2022/07/03 04:20:46;;;;;;;4.50;3.50;;;14.30;99.90;;;14.91;91.06;98178.66;5219107;28;20228;-61
2022/07/03 04:23:19;;;;;;;3.50;3.30;;;14.20;99.90;;;14.93;89.88;98177.00;5218794;28;20209;-62
2022/07/03 04:25:52;;;;;;;3.85;3.55;;;14.10;99.90;;;14.93;89.53;98183.84;5221089;28;20197;-62
2022/07/03 04:28:25;;;;;;;3.15;2.90;;;14.10;99.90;;;14.96;89.88;98176.25;5219569;28;20202;-60
2022/07/03 04:30:59;;;;;;;3.10;2.90;;;14.20;99.90;;;14.98;89.56;98180.66;5221595;28;20221;-62
2022/07/03 04:33:32;;;;;;;3.40;3.20;;;14.10;99.90;;;15.00;89.68;98183.34;5223211;28;20236;-62
2022/07/03 04:36:07;;;;;;;3.28;3.08;;;14.20;99.90;;;14.99;89.95;98184.13;5221787;28;20251;-59
2022/07/03 04:38:40;;;;;;;3.70;3.40;;;14.20;99.90;;;14.98;90.50;98179.78;5222515;28;20201;-60
2022/07/03 04:41:14;;;;;;;3.75;3.45;;;14.30;99.90;;;15.02;90.27;98179.09;5222325;28;20217;-60
2022/07/03 04:43:47;;;;;;;3.55;3.35;;;14.20;99.90;;;15.06;89.12;98181.03;5219198;28;20873;-61
2022/07/03 04:46:21;;;;;;;3.42;3.17;;;14.20;99.90;;;15.22;89.36;98180.91;5219532;28;20676;-59
2022/07/03 04:48:54;;;;;;;3.90;3.60;;;14.50;99.90;;;15.86;88.42;98179.34;5218153;28;20220;-60
2022/07/03 04:51:29;;;;;;;3.42;3.15;;;15.20;99.90;;;16.81;84.16;98177.94;5219586;28;20605;-64
2022/07/03 04:54:02;;;;;;;3.33;3.03;;;16.00;99.90;;;17.76;78.37;98182.22;5218963;28;20296;-63
2022/07/03 04:56:35;;;;;;;3.17;2.97;;;16.90;99.90;;;18.63;73.98;98199.75;5219946;28;20240;-59
2022/07/03 04:59:08;;;;;;;2.80;2.60;;;17.60;99.90;;;19.36;70.35;98195.84;5219985;28;20224;-61
2022/07/03 05:01:41;;;;;;;3.30;3.05;;;18.10;99.90;;;19.90;67.54;98191.25;5218475;28;20205;-60
2022/07/03 05:04:15;;;;;;;3.03;2.75;;;18.60;99.90;;;20.33;66.07;98189.72;5217625;28;20207;-60
2022/07/03 05:06:49;;;;;;;2.90;2.80;;;18.90;99.90;;;20.69;63.90;98194.94;5217182;28;20267;-59
2022/07/03 05:09:23;;;;;;;3.00;2.80;;;19.10;99.90;;;21.09;62.33;98196.66;5215276;28;20366;-61
2022/07/03 05:11:56;;;;;;;2.70;2.45;;;19.40;99.90;;;21.53;61.26;98204.50;5220299;28;20556;-60
2022/07/03 05:14:29;;;;;;;2.80;2.60;;;19.80;99.90;;;21.84;59.46;98197.25;5217878;28;20268;-58
2022/07/03 05:17:03;;;;;;;2.58;2.35;;;20.00;99.90;;;22.00;59.81;98196.66;5219045;28;20545;-57
2022/07/03 05:19:38;;;;;;;2.63;2.53;;;20.10;99.90;;;22.21;58.85;98195.31;5220836;28;20224;-58
2022/07/03 05:22:12;;;;;;;2.78;2.47;;;20.30;99.90;;;22.28;57.91;98197.16;5217290;28;20196;-58
2022/07/03 05:24:45;;;;;;;2.60;2.40;;;20.30;99.90;;;22.44;56.95;98200.91;5218429;28;20230;-58
2022/07/03 05:27:18;;;;;;;2.97;2.75;;;20.50;99.90;;;22.44;57.99;98199.16;5216402;28;20201;-57
2022/07/03 05:29:51;;;;;;;3.05;2.75;;;20.40;99.90;;;22.94;55.94;98201.63;5219827;28;20274;-58
2022/07/03 05:32:25;;;;;;;3.53;2.40;;;20.90;99.90;;;23.16;54.96;98200.19;5215211;28;20205;-58
2022/07/03 05:34:58;;;;;;;3.78;2.70;;;21.10;99.90;;;23.12;54.93;98202.75;5220019;28;20243;-54
2022/07/03 05:37:32;;;;;;;3.50;2.80;;;21.20;99.90;;;23.04;56.09;98196.56;5219422;28;20271;-58
2022/07/03 05:40:07;;;;;;;2.55;2.35;;;21.10;99.90;;;23.43;55.28;98203.13;5217512;28;20225;-55
2022/07/03 05:42:40;;;;;;;2.60;2.40;;;21.40;99.90;;;23.75;53.36;98195.66;5218055;28;20193;-57
2022/07/03 05:45:13;;;;;;;3.13;2.60;;;21.60;99.90;;;23.69;54.64;98192.97;5219436;28;20328;-58
2022/07/03 05:47:46;;;;;;;2.40;2.30;;;21.70;99.90;;;24.20;53.43;98197.81;5218779;28;20632;-58
2022/07/03 05:50:19;;;;;;;2.30;2.20;;;22.00;99.90;;;24.47;53.23;98201.56;5218177;28;20217;-54
2022/07/03 05:52:54;;;;;;;2.65;2.45;;;22.30;99.90;;;24.51;51.98;98205.94;5218782;28;20201;-57
2022/07/03 05:55:27;;;;;;;2.78;2.58;;;22.40;99.90;;;24.82;51.53;98198.31;5216339;28;20599;-58
2022/07/03 05:58:00;;;;;;;3.75;2.20;;;22.40;99.90;;;24.90;50.56;98201.84;5216484;28;20205;-59
2022/07/03 06:00:33;;;;;;;2.50;2.30;;;22.50;99.40;;;25.16;51.05;98202.88;5218320;28;20229;-57
2022/07/03 06:03:06;;;;;;;2.90;2.70;;;22.80;99.40;;;25.34;50.12;98195.97;5217516;28;20196;-58
2022/07/03 06:05:40;;;;;;;2.80;2.60;;;22.80;99.10;;;25.32;50.52;98202.94;5216725;28;20231;-59
2022/07/03 06:08:14;;;;;;;2.30;2.20;;;23.00;99.00;;;25.45;50.49;98201.25;5219296;28;20208;-57
2022/07/03 06:10:47;;;;;;;2.75;2.55;;;23.10;99.40;;;25.94;48.49;98199.63;5172901;28;20229;-59
2022/07/03 06:13:20;;;;;;;2.60;2.40;;;23.30;98.40;;;26.12;48.62;98195.28;5166138;28;20202;-60
2022/07/03 06:15:53;;;;;;;2.63;2.30;;;23.50;98.50;;;26.12;49.29;98196.16;5159531;28;20206;-59
2022/07/03 06:18:27;;;;;;;2.60;2.40;;;23.50;98.60;;;26.54;48.55;98204.06;5159422;28;20738;-59
2022/07/03 06:21:00;;;;;;;2.33;2.00;;;23.80;98.60;;;26.73;47.71;98196.16;5169561;28;20281;-59
2022/07/03 06:23:34;;;;;;;2.50;2.30;;;24.00;98.00;;;26.84;47.65;98200.50;5161447;28;20261;-59
2022/07/03 06:26:22;;;;;;;2.33;2.10;;;24.10;97.80;;;27.13;46.84;98200.44;5159712;28;20600;-60
2022/07/03 06:28:56;;;;;;;2.47;2.28;;;24.30;97.40;;;27.23;46.79;98207.41;5162058;28;20280;-59
2022/07/03 06:31:29;;;;;;;2.00;1.90;;;24.50;97.30;;;27.55;46.06;98190.63;5153775;28;20615;-59
2022/07/03 06:34:02;;;;;;;2.17;1.90;;;24.80;96.90;;;27.82;46.41;98193.13;5157182;28;20625;-60
2022/07/03 06:36:35;;;;;;;2.53;2.15;;;25.10;96.70;;;28.09;45.00;98191.19;5161800;28;20206;-60
2022/07/03 06:39:09;;;;;;;2.65;2.25;;;25.40;95.90;;;28.38;44.65;98192.69;5157220;28;20215;-60
2022/07/03 06:41:43;;;;;;;2.45;2.00;;;25.60;95.70;;;28.85;43.21;98192.28;5160688;28;20504;-60
2022/07/03 06:44:16;;;;;;;2.05;1.77;;;26.10;94.60;;;28.93;42.21;98192.16;5161104;28;20538;-60
2022/07/03 06:46:49;;;;;;;2.08;1.90;;;26.20;93.20;;;29.70;41.14;98196.53;5165674;28;20667;-61
2022/07/03 06:49:22;;;;;;;1.73;1.63;;;26.80;92.90;;;29.23;41.46;98192.75;5164888;28;20730;-62
2022/07/03 06:51:55;;;;;;;2.13;1.80;;;27.20;91.90;;;29.10;42.34;98192.91;5161852;28;20203;-61
2022/07/03 06:54:30;;;;;;;2.90;1.80;;;27.10;92.20;;;30.23;39.13;98187.00;5165102;28;20678;-62
2022/07/03 06:57:03;;;;;;;1.98;1.88;;;27.50;90.90;;;30.39;38.76;98183.22;5163315;28;20645;-61
2022/07/03 06:59:36;;;;;;;1.85;1.75;;;27.80;90.30;;;30.62;37.89;98184.53;5164114;28;20276;-60
2022/07/03 07:02:09;;;;;;;1.52;1.42;;;28.10;89.90;;;31.08;37.41;98186.38;5162274;28;20299;-61
2022/07/03 07:04:43;;;;;;;2.00;1.83;;;28.40;88.70;;;31.59;37.05;98181.78;5165507;28;20206;-60
2022/07/03 07:07:16;;;;;;;1.77;1.67;;;28.90;88.20;;;31.80;37.17;98179.56;5163886;28;20257;-61
2022/07/03 07:09:50;;;;;;;2.15;1.52;;;29.00;88.30;;;32.47;36.04;98187.66;5160465;28;20219;-61
2022/07/03 07:12:25;;;;;;;1.75;1.65;;;29.40;87.30;;;32.14;35.55;98187.59;5157390;28;20194;-60
2022/07/03 07:15:02;;;;;;;1.73;1.63;;;29.30;85.60;;;32.22;35.75;98196.22;5163638;28;20230;-61
2022/07/03 07:17:35;;;;;;;2.35;1.50;;;29.30;85.60;;;32.60;35.03;98193.53;5163398;28;20217;-59
2022/07/03 07:20:09;;;;;;;1.52;1.42;;;29.60;85.30;;;33.03;33.52;98197.69;5162406;28;20686;-61
2022/07/03 07:22:43;;;;;;;1.50;1.33;;;29.80;82.90;;;32.85;34.32;98197.25;5163561;28;20698;-61
2022/07/03 07:25:17;;;;;;;2.38;1.52;;;29.90;83.00;;;33.11;34.06;98191.28;5160047;28;20760;-59
2022/07/03 07:27:50;;;;;;;1.60;1.50;;;30.10;82.50;;;33.43;34.26;98192.13;5163656;28;20260;-60
2022/07/03 07:30:24;;;;;;;1.40;1.30;;;30.40;82.80;;;33.70;33.58;98193.06;5164861;28;20640;-60
2022/07/03 07:32:57;;;;;;;1.58;1.48;;;30.50;82.30;;;33.58;33.03;98191.66;5161202;28;20195;-59
2022/07/03 07:35:30;;;;;;;1.40;1.30;;;30.30;81.50;;;33.84;32.88;98197.97;5163048;28;20256;-59
2022/07/03 07:38:04;;;;;;;2.17;1.30;;;30.50;81.20;;;33.85;33.07;98187.31;5164322;28;20262;-60
2022/07/03 07:40:42;;;;;;;2.05;1.20;;;30.50;80.70;;;33.77;33.36;98186.69;5155688;28;20237;-60
2022/07/03 07:43:15;;;;;;;2.75;1.40;;;30.30;81.90;;;33.70;31.77;98189.56;5159790;28;20704;-60
2022/07/03 07:45:49;;;;;;;1.52;1.30;;;30.30;80.70;;;33.78;32.31;98192.84;5164710;28;20198;-62
2022/07/03 07:48:22;;;;;;;1.75;1.10;;;30.30;79.90;;;33.80;32.47;98186.59;5166820;28;20550;-60
2022/07/03 07:50:55;;;;;;;1.23;1.15;;;30.60;79.20;;;33.98;31.63;98189.56;5166045;28;20345;-61
2022/07/03 07:53:28;;;;;;;1.40;1.30;;;30.70;79.10;;;34.07;31.26;98187.50;5161610;28;20650;-61
2022/07/03 07:56:03;;;;;;;1.50;1.40;;;30.90;77.40;;;34.33;31.41;98193.75;5164055;28;20202;-61
2022/07/03 07:58:36;;;;;;;1.30;1.00;;;31.00;78.20;;;34.59;31.15;98190.22;5166585;28;20209;-60
2022/07/03 08:06:51;;;;;;;1.13;1.10;;;30.90;78.20;;;34.95;30.29;98190.72;5165211;28;20253;-61
2022/07/03 08:09:24;;;;;;;1.40;1.17;;;31.10;77.00;;;35.22;29.76;98192.47;5164118;28;20284;-61
2022/07/03 08:11:58;;;;;;;1.45;1.10;;;31.30;76.70;;;35.19;29.76;98191.63;5165637;28;20257;-61
2022/07/03 08:14:31;;;;;;;2.33;1.20;;;31.30;76.40;;;35.59;29.46;98183.97;5163148;28;20194;-61
2022/07/03 08:17:05;;;;;;;1.17;1.17;;;31.30;75.60;;;35.47;28.12;98190.63;5166143;28;20245;-61
2022/07/03 08:19:38;;;;;;;1.20;1.10;;;31.30;74.40;;;35.57;28.58;98186.72;5164885;28;20282;-61
2022/07/03 08:22:12;;;;;;;1.30;1.20;;;31.50;74.80;;;35.53;28.64;98181.53;5161366;28;20276;-61
2022/07/03 08:24:45;;;;;;;1.48;1.20;;;31.80;72.70;;;34.94;29.15;98189.00;5164106;28;20206;-61
2022/07/03 08:27:19;;;;;;;1.30;1.10;;;31.70;73.20;;;34.41;29.81;98182.88;5165558;28;20210;-61
2022/07/03 08:29:53;;;;;;;1.05;1.02;;;31.30;73.50;;;34.20;30.21;98187.13;5164324;28;20658;-61
2022/07/03 08:32:26;;;;;;;1.40;1.10;;;31.40;73.70;;;33.92;30.46;98173.84;5162033;28;20194;-60
2022/07/03 08:34:59;;;;;;;1.75;1.10;;;31.20;72.90;;;33.79;31.14;98178.66;5160793;28;20203;-61
2022/07/03 08:37:32;;;;;;;1.08;1.00;;;31.20;73.80;;;33.79;31.92;98174.22;5164031;28;20202;-61
2022/07/03 08:40:07;;;;;;;2.60;1.10;;;31.30;75.30;;;33.74;30.76;98175.28;5167026;23;20244;-61
2022/07/03 08:42:46;;;;;;;1.13;1.02;;;31.20;72.70;;;33.57;31.22;98168.72;5134892;28;20211;-60
2022/07/03 08:45:21;;;;;;;1.10;1.05;;;31.10;73.20;;;33.49;30.56;98170.72;5139926;28;20211;-60
2022/07/03 08:47:56;;;;;;;1.23;1.17;;;31.40;71.60;;;33.47;30.85;98164.59;5143238;28;20199;-59
2022/07/03 08:50:33;;;;;;;0.85;0.85;;;31.30;71.70;;;33.34;29.89;98171.19;5140714;28;20223;-60
2022/07/03 08:53:07;;;;;;;1.42;0.82;;;31.20;70.80;;;33.35;29.65;98171.13;5135338;28;20196;-60
2022/07/03 08:55:40;;;;;;;1.40;1.05;;;31.30;69.50;;;33.32;30.54;98168.56;5139988;28;20202;-61
2022/07/03 08:58:16;;;;;;;1.65;0.95;;;31.30;70.80;;;33.51;28.28;98166.25;5139501;28;20761;-57
2022/07/03 09:00:50;;;;;;;0.85;0.85;;;31.60;66.60;;;33.37;29.39;98164.00;5137679;28;20219;-60
2022/07/03 09:03:26;;;;;;;2.10;1.00;;;31.50;69.20;;;33.28;29.60;98169.59;5139857;28;20259;-59
2022/07/03 09:05:59;;;;;;;1.05;0.93;;;31.80;68.30;;;33.29;28.29;98162.50;5140803;28;20617;-60
2022/07/03 09:08:33;;;;;;;1.13;1.02;;;31.50;64.90;;;33.20;29.46;98158.34;5138350;28;20258;-60
2022/07/03 09:11:07;;;;;;;1.23;0.85;;;31.40;66.20;;;33.17;28.67;98154.00;5136770;28;20694;-57
2022/07/03 09:13:42;;;;;;;1.00;0.90;;;31.40;66.10;;;33.12;28.66;98162.97;5133196;28;20243;-58
2022/07/03 09:16:18;;;;;;;1.75;0.80;;;31.30;66.30;;;33.12;28.47;98155.91;5136966;28;20246;-60
2022/07/03 09:18:51;;;;;;;1.27;1.00;;;31.60;64.50;;;33.16;27.99;98146.06;5137897;28;20202;-59
2022/07/03 09:21:24;;;;;;;1.08;0.70;;;31.70;63.40;;;32.92;28.29;98153.78;5139816;28;20227;-62
2022/07/03 09:24:06;;;;;;;2.35;0.90;;;31.40;64.60;;;32.98;29.29;98155.41;5138488;28;20203;-56
2022/07/03 09:26:52;;;;;;;0.80;0.80;;;31.40;65.80;;;32.66;28.33;98157.16;5136258;28;20254;-56
2022/07/03 09:29:27;;;;;;;0.77;0.77;;;31.10;64.60;;;32.68;27.94;98155.34;5134042;28;20207;-57
2022/07/03 09:32:00;;;;;;;0.90;0.88;;;31.10;63.70;;;32.68;28.30;98154.44;5133195;28;20617;-57
2022/07/03 09:34:33;;;;;;;0.88;0.88;;;31.00;64.50;;;32.64;28.92;98148.38;5136701;28;20226;-60
2022/07/03 09:37:07;;;;;;;0.80;0.80;;;31.00;66.00;;;32.65;28.59;98150.13;5137904;28;20490;-57
2022/07/03 09:39:40;;;;;;;0.77;0.75;;;31.20;64.70;;;32.55;28.88;98148.63;5134658;28;20211;-60
2022/07/03 09:42:14;;;;;;;0.88;0.88;;;31.10;64.40;;;32.46;28.57;98148.88;5133988;28;20211;-61
2022/07/03 09:44:48;;;;;;;1.45;1.08;;;31.10;63.00;;;32.43;28.63;98143.63;5134985;28;20211;-62
2022/07/03 09:47:24;;;;;;;0.98;0.80;;;31.00;63.70;;;32.44;28.51;98146.22;5138056;28;20713;-60
2022/07/03 09:49:59;;;;;;;1.48;1.38;;;30.90;63.80;;;32.38;29.07;98146.41;5133107;28;20244;-61
2022/07/03 09:52:36;;;;;;;1.00;0.90;;;31.00;64.60;;;32.48;27.57;98140.00;5137013;28;20656;-60
2022/07/03 09:55:19;;;;;;;1.48;1.00;;;31.10;62.40;;;32.34;29.27;98143.84;5133042;28;20259;-63
2022/07/03 09:58:01;;;;;;;1.38;0.95;;;30.90;64.60;;;32.25;29.23;98137.91;5134357;28;20199;-60
2022/07/03 10:00:37;;;;;;;2.00;0.90;;;31.00;64.10;;;32.14;27.27;98141.75;5131025;28;20227;-60
2022/07/03 10:03:12;;;;;;;2.38;0.98;;;30.70;61.50;;;32.06;28.16;98139.28;5134374;28;20267;-58
2022/07/03 10:05:45;;;;;;;1.17;0.90;;;30.80;62.40;;;31.99;27.85;98143.88;5132025;28;20670;-60
2022/07/03 10:08:19;;;;;;;1.08;0.90;;;30.80;62.30;;;32.00;28.27;98136.78;5132512;28;20927;-64
2022/07/03 10:10:52;;;;;;;1.25;0.75;;;30.70;62.10;;;31.73;27.90;98139.13;5135636;28;20332;-61
2022/07/03 10:13:25;;;;;;;1.08;0.88;;;30.60;61.90;;;31.79;28.00;98139.03;5137265;28;20737;-64
2022/07/03 10:16:01;;;;;;;1.17;1.00;;;30.60;61.50;;;31.79;29.93;98141.66;5137072;28;20542;-61
2022/07/03 10:18:38;;;;;;;1.10;1.00;;;30.70;64.80;;;31.68;28.74;98135.75;5136083;28;20258;-61
2022/07/03 10:21:13;;;;;;;1.40;0.90;;;30.50;62.20;;;31.59;28.33;98133.31;5133244;28;20770;-61
2022/07/03 10:23:47;;;;;;;0.85;0.82;;;30.40;61.80;;;31.50;28.56;98129.09;5135303;28;20543;-64
2022/07/03 10:26:20;;;;;;;0.70;0.70;;;30.30;61.90;;;31.41;29.73;98138.09;5135447;28;20631;-63
2022/07/03 10:28:54;;;;;;;1.05;0.90;;;30.20;64.50;;;31.32;30.07;98130.34;5138518;28;20195;-62
2022/07/03 10:31:29;;;;;;;1.20;1.10;;;30.10;64.50;;;31.30;29.50;98132.16;5136981;28;20226;-61
2022/07/03 10:34:03;;;;;;;1.10;1.10;;;30.20;64.10;;;31.34;29.61;98132.97;5133351;28;20730;-60
2022/07/03 10:36:39;;;;;;;1.50;1.00;;;30.30;63.10;;;31.35;29.66;98135.59;5132640;28;20270;-61
2022/07/03 10:39:38;;;;;;;0.90;0.90;;;30.20;63.20;;;31.30;28.75;98132.16;5136155;28;20647;-63
2022/07/03 10:45:12;;;;;;;1.58;0.98;;;30.00;62.30;;;31.07;29.49;98127.38;5136819;28;20584;-62
2022/07/03 10:47:48;;;;;;;0.90;0.90;;;30.00;62.90;;;31.10;29.13;98119.38;5138589;28;20203;-61
2022/07/03 10:50:23;;;;;;;1.85;1.70;;;30.00;62.60;;;31.09;30.15;98136.13;5138662;28;20234;-61
2022/07/03 10:53:23;;;;;;;1.08;0.93;;;30.10;63.80;;;31.05;28.32;98133.56;5140018;28;20676;-61
2022/07/03 10:56:05;;;;;;;1.58;1.48;;;30.00;60.90;;;31.00;29.79;98127.53;5141005;28;20208;-62
2022/07/03 10:58:56;;;;;;;1.30;1.20;;;29.90;63.70;;;30.97;29.97;98131.97;5138516;28;20251;-62
2022/07/03 11:01:30;;;;;;;1.17;1.02;;;29.90;63.80;;;30.96;30.85;98124.97;5138561;28;20251;-61
2022/07/03 11:04:05;;;;;;;1.08;1.08;;;29.90;64.60;;;30.89;31.28;98125.13;5139470;28;20210;-62